Kilsyth, United Kingdom
Current Conditions -  °F | °C
As of 3:20 PM on Monday 22 Dec 2014 (Local Time) from EGPF Reporting Station
Light Rain Light Rain  
Wind Chill:   Ceiling: 1500
Heat Index:   Visibility: 6mi
Dew Point:   Wind: 9mph
Humidity: 93%   Direction: 260°W
Pressure: 29.65"   Gusts: NA
Location:  55.98°N, 4.06°W
Report Text: EGPF 221520Z AUTO 26008KT 9999 -RA SCT006 BKN015 BKN025 08/07 Q1004 RERA REDZ
Loading
Personal Weather Stations






























Interactive Weather Map New forecast layout! Learn more

10-Day Weather Forecast

Advertisements
Track Severe Weather on mobile